Time;durP1;ratioP1;P1;durP2;ratioP2;P2;SDS_P1;SDS_P2;PMS_P1;PMS_P2;Temp;Humidity;BMP_temperature;BMP_pressure;BME280_temperature;BME280_humidity;BME280_pressure;Samples;Min_cycle;Max_cycle;Signal;HPM_P1;HPM_P2
2021/06/20 00:01:21;;;;;;;18.27;10.35;;;;;;;;;;5034003;28;20056;-70
2021/06/20 00:03:47;;;;;;;15.43;9.63;;;;;;;;;;5035832;28;20036;-71
2021/06/20 00:06:34;;;;;;;16.52;10.55;;;;;;;;;;5049986;28;20029;-71
2021/06/20 00:09:01;;;;;;;13.07;9.95;;;;;;;;;;5034419;28;20032;-71
2021/06/20 00:11:28;;;;;;;15.02;9.73;;;;;;;;;;5035668;28;20014;-72
2021/06/20 00:13:55;;;;;;;19.70;10.70;;;;;;;;;;5050992;28;20501;-71
2021/06/20 00:16:21;;;;;;;17.02;10.60;;;;;;;;;;5034285;28;20030;-71
2021/06/20 00:18:48;;;;;;;21.08;9.98;;;;;;;;;;5034245;28;20021;-71
2021/06/20 00:21:15;;;;;;;15.85;10.57;;;;;;;;;;5050865;28;20461;-71
2021/06/20 00:23:41;;;;;;;18.48;10.82;;;;;;;;;;5035498;28;20415;-71
2021/06/20 00:26:07;;;;;;;19.25;13.75;;;;;;;;;;5035447;28;20175;-71
2021/06/20 00:28:33;;;;;;;19.50;14.35;;;;;;;;;;5035386;28;20025;-70
2021/06/20 00:31:00;;;;;;;17.08;13.95;;;;;;;;;;5034037;28;20071;-70
2021/06/20 00:33:26;;;;;;;24.90;13.27;;;;;;;;;;5035390;28;20017;-69
2021/06/20 00:35:53;;;;;;;19.92;14.02;;;;;;;;;;5035225;28;20107;-69
2021/06/20 00:38:19;;;;;;;15.15;12.55;;;;;;;;;;5033875;28;20040;-69
2021/06/20 00:40:45;;;;;;;17.98;12.70;;;;;;;;;;5035182;28;20029;-72
2021/06/20 00:43:11;;;;;;;15.77;10.85;;;;;;;;;;5033844;28;20026;-71
2021/06/20 00:45:37;;;;;;;16.00;9.60;;;;;;;;;;5033691;28;20026;-69
2021/06/20 00:48:04;;;;;;;13.40;9.65;;;;;;;;;;5050412;28;20128;-68
2021/06/20 00:50:30;;;;;;;19.55;9.25;;;;;;;;;;5050372;28;20484;-69
2021/06/20 00:52:58;;;;;;;14.32;9.88;;;;;;;;;;5034710;28;20410;-71
2021/06/20 00:55:26;;;;;;;14.18;9.63;;;;;;;;;;5034852;28;20091;-69
2021/06/20 00:57:53;;;;;;;14.68;10.15;;;;;;;;;;5034822;28;20021;-72
2021/06/20 01:00:19;;;;;;;15.35;10.32;;;;;;;;;;5034303;28;20506;-68
2021/06/20 01:02:47;;;;;;;17.52;10.18;;;;;;;;;;5034700;28;20549;-70
2021/06/20 01:05:13;;;;;;;14.93;10.45;;;;;;;;;;5033278;28;20036;-72
2021/06/20 01:07:42;;;;;;;12.13;10.02;;;;;;;;;;5034921;28;20021;-70
2021/06/20 01:10:10;;;;;;;17.25;10.25;;;;;;;;;;5033534;28;20025;-71
2021/06/20 01:12:36;;;;;;;17.52;10.35;;;;;;;;;;5034833;28;20022;-73
2021/06/20 01:15:04;;;;;;;18.92;10.57;;;;;;;;;;5033334;28;20120;-70
2021/06/20 01:17:30;;;;;;;13.25;9.77;;;;;;;;;;5032848;28;20036;-67
2021/06/20 01:19:57;;;;;;;12.10;10.30;;;;;;;;;;5034576;28;20052;-70
2021/06/20 01:22:26;;;;;;;11.93;9.43;;;;;;;;;;5034557;28;20056;-70
2021/06/20 01:24:56;;;;;;;11.20;8.57;;;;;;;;;;5034620;28;20029;-69
2021/06/20 01:27:29;;;;;;;13.20;8.48;;;;;;;;;;5035444;28;20374;-68
2021/06/20 01:29:55;;;;;;;17.65;9.95;;;;;;;;;;5050554;28;20036;-67
2021/06/20 01:32:21;;;;;;;13.48;10.15;;;;;;;;;;5051067;28;20116;-67
2021/06/20 01:34:47;;;;;;;14.38;9.45;;;;;;;;;;5033968;28;20037;-70
2021/06/20 01:37:17;;;;;;;12.95;10.40;;;;;;;;;;5035500;28;20465;-68
2021/06/20 01:39:43;;;;;;;21.40;11.70;;;;;;;;;;5035897;28;20508;-70
2021/06/20 01:42:14;;;;;;;15.63;11.90;;;;;;;;;;5034975;28;20021;-68
2021/06/20 01:44:55;;;;;;;21.45;11.30;;;;;;;;;;5035555;28;20022;-69
2021/06/20 01:47:22;;;;;;;20.83;11.88;;;;;;;;;;5035899;28;20026;-69
2021/06/20 01:49:48;;;;;;;15.82;11.23;;;;;;;;;;5032792;28;20029;-70
2021/06/20 01:52:18;;;;;;;23.73;10.65;;;;;;;;;;5033541;28;20105;-69
2021/06/20 01:54:50;;;;;;;17.30;9.20;;;;;;;;;;5032497;28;20025;-66
2021/06/20 01:57:20;;;;;;;12.82;9.43;;;;;;;;;;5033757;28;20018;-69
2021/06/20 01:59:47;;;;;;;18.17;10.50;;;;;;;;;;5033393;28;20033;-69
2021/06/20 02:02:13;;;;;;;15.52;10.52;;;;;;;;;;5032418;28;20028;-68
2021/06/20 02:04:40;;;;;;;18.23;11.18;;;;;;;;;;5033288;28;20040;-71
2021/06/20 02:07:09;;;;;;;14.52;9.70;;;;;;;;;;5033850;28;20029;-68
2021/06/20 02:09:36;;;;;;;14.77;10.02;;;;;;;;;;5033512;28;20017;-69
2021/06/20 02:12:03;;;;;;;15.63;8.30;;;;;;;;;;5032148;28;20025;-68
2021/06/20 02:14:29;;;;;;;14.45;10.18;;;;;;;;;;5033199;28;20490;-71
2021/06/20 02:16:55;;;;;;;16.42;10.05;;;;;;;;;;5033383;28;20087;-68
2021/06/20 02:19:21;;;;;;;15.48;10.35;;;;;;;;;;5033119;28;20075;-68
2021/06/20 02:21:47;;;;;;;17.40;10.35;;;;;;;;;;5033572;28;20501;-69
2021/06/20 02:24:14;;;;;;;13.85;10.40;;;;;;;;;;5031979;28;20025;-70
2021/06/20 02:26:40;;;;;;;14.50;10.13;;;;;;;;;;5033337;28;20061;-69
2021/06/20 02:29:06;;;;;;;13.02;8.63;;;;;;;;;;5033109;28;20116;-71
2021/06/20 02:31:32;;;;;;;15.73;8.25;;;;;;;;;;5048210;28;20021;-68
2021/06/20 02:33:58;;;;;;;13.75;9.43;;;;;;;;;;5033264;28;20035;-69
2021/06/20 02:36:25;;;;;;;13.65;8.85;;;;;;;;;;5048477;28;20366;-71
2021/06/20 02:38:51;;;;;;;14.25;10.00;;;;;;;;;;5048411;28;20488;-69
2021/06/20 02:41:18;;;;;;;12.98;9.02;;;;;;;;;;5031872;28;20083;-69
2021/06/20 02:43:44;;;;;;;15.18;9.48;;;;;;;;;;5048445;28;20029;-69
2021/06/20 02:46:10;;;;;;;13.95;9.90;;;;;;;;;;5032680;28;20079;-69
2021/06/20 02:48:36;;;;;;;16.70;9.93;;;;;;;;;;5033037;28;20515;-70
2021/06/20 02:51:03;;;;;;;18.45;10.00;;;;;;;;;;5032986;28;20084;-70
2021/06/20 02:53:29;;;;;;;17.40;10.88;;;;;;;;;;5032810;28;20017;-71
2021/06/20 02:55:55;;;;;;;13.93;10.07;;;;;;;;;;5031629;28;20390;-69
2021/06/20 02:58:21;;;;;;;19.42;11.23;;;;;;;;;;5032922;28;20021;-71
2021/06/20 03:00:48;;;;;;;15.68;10.45;;;;;;;;;;5032542;28;20054;-71
2021/06/20 03:03:14;;;;;;;18.90;9.57;;;;;;;;;;5031618;28;20596;-68
2021/06/20 03:05:40;;;;;;;15.88;9.80;;;;;;;;;;5032820;28;20108;-72
2021/06/20 03:08:06;;;;;;;14.55;10.38;;;;;;;;;;5032852;28;20061;-70
2021/06/20 03:10:32;;;;;;;18.67;10.98;;;;;;;;;;5032877;28;20053;-69
2021/06/20 03:12:59;;;;;;;12.68;10.00;;;;;;;;;;5031510;28;20053;-68
2021/06/20 03:15:25;;;;;;;18.67;9.75;;;;;;;;;;5032872;28;20474;-69
2021/06/20 03:17:51;;;;;;;16.20;10.43;;;;;;;;;;5032766;28;20049;-71
2021/06/20 03:20:18;;;;;;;16.17;11.25;;;;;;;;;;5031700;28;20021;-70
2021/06/20 03:22:47;;;;;;;17.17;10.80;;;;;;;;;;5032716;28;20369;-70
2021/06/20 03:25:13;;;;;;;17.75;11.35;;;;;;;;;;5032667;28;20026;-68
2021/06/20 03:27:39;;;;;;;20.63;12.63;;;;;;;;;;5032742;28;20124;-66
2021/06/20 03:30:06;;;;;;;24.10;16.10;;;;;;;;;;5032645;28;20052;-68
2021/06/20 03:32:33;;;;;;;22.10;16.25;;;;;;;;;;5032613;28;20101;-67
2021/06/20 03:34:59;;;;;;;23.67;14.95;;;;;;;;;;5032617;28;20100;-67
2021/06/20 03:37:25;;;;;;;21.67;14.85;;;;;;;;;;5032836;28;20163;-68
2021/06/20 03:39:52;;;;;;;21.27;14.30;;;;;;;;;;5031524;28;20050;-68
2021/06/20 03:42:18;;;;;;;17.05;14.60;;;;;;;;;;5035363;28;20029;-68
2021/06/20 03:44:44;;;;;;;18.40;14.80;;;;;;;;;;5034856;28;20025;-68
2021/06/20 03:47:10;;;;;;;21.88;14.52;;;;;;;;;;5036177;28;20470;-69
2021/06/20 03:49:37;;;;;;;22.90;13.95;;;;;;;;;;5036180;28;20139;-70
2021/06/20 03:52:03;;;;;;;22.25;13.75;;;;;;;;;;5035838;28;20021;-73
2021/06/20 03:54:31;;;;;;;20.92;14.73;;;;;;;;;;5036101;28;20021;-70
2021/06/20 03:56:57;;;;;;;21.75;13.90;;;;;;;;;;5034706;28;20037;-69
2021/06/20 03:59:25;;;;;;;23.52;15.40;;;;;;;;;;5036023;28;20108;-70
2021/06/20 04:01:52;;;;;;;24.58;15.00;;;;;;;;;;5034404;28;20052;-71
2021/06/20 04:04:19;;;;;;;25.33;15.40;;;;;;;;;;5034541;28;20760;-70
2021/06/20 04:06:45;;;;;;;22.23;15.50;;;;;;;;;;5034490;28;20033;-70
2021/06/20 04:09:12;;;;;;;28.30;15.80;;;;;;;;;;5034461;28;20112;-70
2021/06/20 04:11:38;;;;;;;31.77;16.88;;;;;;;;;;5034396;28;20488;-69
2021/06/20 04:14:04;;;;;;;34.42;18.95;;;;;;;;;;5035716;28;20482;-71
2021/06/20 04:16:31;;;;;;;30.60;18.88;;;;;;;;;;5035637;28;20050;-69
2021/06/20 04:18:57;;;;;;;30.33;16.88;;;;;;;;;;5035586;28;20492;-68
2021/06/20 04:21:24;;;;;;;29.75;16.23;;;;;;;;;;5035520;28;20022;-70
2021/06/20 04:23:51;;;;;;;24.90;15.68;;;;;;;;;;5034283;28;20022;-67
2021/06/20 04:26:17;;;;;;;21.30;15.18;;;;;;;;;;5035425;28;20075;-69
2021/06/20 04:28:43;;;;;;;18.58;13.75;;;;;;;;;;5035488;28;20100;-67
2021/06/20 04:31:10;;;;;;;17.65;13.93;;;;;;;;;;5034049;28;20021;-68
2021/06/20 04:33:36;;;;;;;21.25;14.40;;;;;;;;;;5035323;28;20419;-69
2021/06/20 04:36:02;;;;;;;20.50;13.10;;;;;;;;;;5035166;28;20025;-72
2021/06/20 04:38:29;;;;;;;22.08;13.60;;;;;;;;;;5035210;28;20021;-70
2021/06/20 04:41:02;;;;;;;17.88;12.50;;;;;;;;;;5035216;28;20029;-70
2021/06/20 04:46:29;;;;;;;15.48;13.05;;;;;;;;;;5034591;28;20492;-68
2021/06/20 04:49:07;;;;;;;17.88;12.65;;;;;;;;;;5035016;28;20096;-69
2021/06/20 04:51:34;;;;;;;16.00;12.43;;;;;;;;;;5035051;28;20018;-69
2021/06/20 04:54:01;;;;;;;16.30;13.07;;;;;;;;;;5034427;28;20025;-68
2021/06/20 04:56:27;;;;;;;20.30;13.52;;;;;;;;;;5033556;28;20030;-68
2021/06/20 04:58:54;;;;;;;19.95;12.43;;;;;;;;;;5035143;28;20022;-68
2021/06/20 05:01:21;;;;;;;16.20;12.70;;;;;;;;;;5034792;28;20092;-70
2021/06/20 05:03:48;;;;;;;17.83;13.50;;;;;;;;;;5033442;28;20044;-68
2021/06/20 05:06:14;;;;;;;14.93;12.25;;;;;;;;;;5034697;28;20374;-72
2021/06/20 05:08:41;;;;;;;14.38;12.32;;;;;;;;;;5034685;28;20079;-69
2021/06/20 05:11:07;;;;;;;14.85;11.35;;;;;;;;;;5033276;28;20476;-70
2021/06/20 05:13:33;;;;;;;17.33;11.05;;;;;;;;;;5033313;28;20036;-71
2021/06/20 05:16:00;;;;;;;14.60;10.25;;;;;;;;;;5033229;28;20029;-70
2021/06/20 05:18:26;;;;;;;17.23;10.95;;;;;;;;;;5034487;28;20481;-68
2021/06/20 05:20:52;;;;;;;17.55;10.52;;;;;;;;;;5033151;28;20553;-69
2021/06/20 05:23:20;;;;;;;14.25;10.30;;;;;;;;;;5034365;28;20029;-68
2021/06/20 05:25:47;;;;;;;13.50;10.77;;;;;;;;;;5033080;28;20409;-70
2021/06/20 05:28:13;;;;;;;15.93;10.88;;;;;;;;;;5034319;28;20025;-69
2021/06/20 05:30:42;;;;;;;14.63;10.60;;;;;;;;;;5033979;28;20116;-69
2021/06/20 05:33:08;;;;;;;12.35;11.05;;;;;;;;;;5034236;28;20014;-70
2021/06/20 05:35:34;;;;;;;15.80;11.23;;;;;;;;;;5034188;28;20038;-69
2021/06/20 05:38:00;;;;;;;14.13;10.70;;;;;;;;;;5032756;28;20108;-71
2021/06/20 05:40:27;;;;;;;13.57;10.43;;;;;;;;;;5034043;28;20112;-69
2021/06/20 05:42:53;;;;;;;18.77;10.93;;;;;;;;;;5032656;28;20489;-67
2021/06/20 05:45:19;;;;;;;13.02;9.80;;;;;;;;;;5033931;28;20033;-69
2021/06/20 05:47:45;;;;;;;12.85;9.18;;;;;;;;;;5033914;28;20136;-69
2021/06/20 05:50:12;;;;;;;13.23;9.57;;;;;;;;;;5049212;28;20029;-67
2021/06/20 05:52:38;;;;;;;17.63;12.00;;;;;;;;;;5048743;28;20022;-66
2021/06/20 05:55:06;;;;;;;37.92;15.85;;;;;;;;;;5032559;28;20033;-68
2021/06/20 05:57:32;;;;;;;36.35;14.85;;;;;;;;;;5033728;28;20075;-66
2021/06/20 05:59:58;;;;;;;42.30;13.80;;;;;;;;;;5033414;28;20054;-66
2021/06/20 06:02:25;;;;;;;30.70;13.55;;;;;;;;;;5033700;28;20022;-68
2021/06/20 06:04:51;;;;;;;45.83;15.07;;;;;;;;;;5032225;28;20029;-71
2021/06/20 06:07:17;;;;;;;30.15;12.60;;;;;;;;;;5032308;28;20048;-68
2021/06/20 06:09:43;;;;;;;63.83;20.38;;;;;;;;;;5033485;28;20552;-68
2021/06/20 06:12:10;;;;;;;28.52;13.63;;;;;;;;;;5033544;28;20104;-68
2021/06/20 06:14:36;;;;;;;27.00;11.77;;;;;;;;;;5032115;28;20477;-69
2021/06/20 06:17:02;;;;;;;55.22;17.10;;;;;;;;;;5033456;28;20030;-69
2021/06/20 06:19:28;;;;;;;50.80;15.35;;;;;;;;;;5033137;28;20018;-67
2021/06/20 06:21:55;;;;;;;11.15;8.50;;;;;;;;;;5023003;28;20080;-68
2021/06/20 06:24:21;;;;;;;15.95;8.15;;;;;;;;;;5028360;28;20018;-70
2021/06/20 06:26:47;;;;;;;47.17;17.88;;;;;;;;;;5013544;28;20033;-67
2021/06/20 06:29:13;;;;;;;62.42;19.98;;;;;;;;;;5013481;28;20034;-69
2021/06/20 06:31:41;;;;;;;24.35;10.13;;;;;;;;;;5012018;28;20374;-68
2021/06/20 06:34:09;;;;;;;48.30;15.30;;;;;;;;;;5013367;28;20026;-68
2021/06/20 06:36:37;;;;;;;22.50;10.30;;;;;;;;;;5012126;28;20026;-67
2021/06/20 06:39:03;;;;;;;15.57;9.10;;;;;;;;;;5013290;28;20029;-70
2021/06/20 06:41:31;;;;;;;31.50;12.82;;;;;;;;;;5013039;28;20049;-68
2021/06/20 06:43:57;;;;;;;8.55;7.35;;;;;;;;;;5011959;28;20026;-66
2021/06/20 06:46:23;;;;;;;19.92;10.20;;;;;;;;;;5013257;28;20032;-66
2021/06/20 06:48:50;;;;;;;17.35;9.30;;;;;;;;;;5012186;28;20145;-65
2021/06/20 06:51:16;;;;;;;8.77;7.80;;;;;;;;;;5013221;28;20022;-67
2021/06/20 06:53:42;;;;;;;8.77;7.28;;;;;;;;;;5012917;28;20105;-66
2021/06/20 06:56:08;;;;;;;9.88;6.25;;;;;;;;;;5012984;28;20060;-68
2021/06/20 06:58:34;;;;;;;7.03;5.40;;;;;;;;;;5028396;28;20022;-67
2021/06/20 07:01:01;;;;;;;8.77;5.82;;;;;;;;;;5027924;28;20050;-66
2021/06/20 07:03:27;;;;;;;8.68;6.15;;;;;;;;;;5012597;28;20521;-67
2021/06/20 07:05:53;;;;;;;11.40;6.50;;;;;;;;;;5028357;28;20030;-67
2021/06/20 07:08:19;;;;;;;9.45;6.78;;;;;;;;;;5013025;28;20474;-65
2021/06/20 07:10:45;;;;;;;9.93;7.03;;;;;;;;;;5012957;28;20030;-67
2021/06/20 07:13:12;;;;;;;8.80;6.55;;;;;;;;;;5013016;28;20514;-67
2021/06/20 07:15:38;;;;;;;7.10;6.03;;;;;;;;;;5013512;28;20026;-68
2021/06/20 07:18:04;;;;;;;10.23;7.20;;;;;;;;;;5016706;28;20137;-68
2021/06/20 07:20:31;;;;;;;10.25;6.63;;;;;;;;;;5031995;28;20021;-65
2021/06/20 07:22:57;;;;;;;10.90;6.88;;;;;;;;;;5032079;28;20115;-66
2021/06/20 07:25:23;;;;;;;9.23;6.50;;;;;;;;;;5015701;28;20034;-66
2021/06/20 07:27:50;;;;;;;12.52;6.55;;;;;;;;;;5031692;28;20121;-67
2021/06/20 07:30:18;;;;;;;8.95;6.93;;;;;;;;;;5016704;28;20471;-69
2021/06/20 07:32:45;;;;;;;9.27;5.82;;;;;;;;;;5031793;28;20124;-69
2021/06/20 07:35:12;;;;;;;13.32;6.05;;;;;;;;;;5016533;28;20109;-70
2021/06/20 07:37:39;;;;;;;8.82;6.60;;;;;;;;;;5016525;28;20351;-68
2021/06/20 07:40:06;;;;;;;9.90;6.13;;;;;;;;;;5016497;28;20562;-70
2021/06/20 07:42:32;;;;;;;9.05;6.15;;;;;;;;;;5016507;28;20033;-69
2021/06/20 07:44:59;;;;;;;6.38;5.28;;;;;;;;;;5016308;28;20030;-66
2021/06/20 07:47:25;;;;;;;7.50;5.75;;;;;;;;;;5015789;28;20044;-66
2021/06/20 07:49:51;;;;;;;9.10;5.82;;;;;;;;;;5031492;28;20054;-67
2021/06/20 07:52:17;;;;;;;6.90;5.78;;;;;;;;;;5016322;28;20045;-67
2021/06/20 07:54:49;;;;;;;10.70;5.47;;;;;;;;;;5016311;28;20030;-67
2021/06/20 07:57:19;;;;;;;7.70;5.53;;;;;;;;;;5015909;28;20530;-66
2021/06/20 07:59:46;;;;;;;6.32;5.72;;;;;;;;;;5031186;28;20029;-68
2021/06/20 08:02:13;;;;;;;6.30;4.35;;;;;;;;;;5016250;28;20029;-66
2021/06/20 08:04:40;;;;;;;5.18;4.20;;;;;;;;;;5016008;28;20022;-67
2021/06/20 08:07:06;;;;;;;9.00;5.18;;;;;;;;;;5016141;28;20080;-66
2021/06/20 08:09:33;;;;;;;11.38;4.75;;;;;;;;;;5016033;28;20076;-66
2021/06/20 08:12:00;;;;;;;8.07;4.28;;;;;;;;;;5016001;28;20110;-66
2021/06/20 08:14:26;;;;;;;7.90;4.82;;;;;;;;;;5015624;28;20367;-66
2021/06/20 08:16:53;;;;;;;5.03;3.40;;;;;;;;;;5031086;28;20033;-69
2021/06/20 08:19:19;;;;;;;5.18;4.18;;;;;;;;;;5015859;28;20034;-68
2021/06/20 08:21:46;;;;;;;5.60;3.50;;;;;;;;;;5015773;28;20075;-67
2021/06/20 08:24:12;;;;;;;4.93;3.60;;;;;;;;;;5015508;28;20108;-65
2021/06/20 08:26:39;;;;;;;4.35;3.80;;;;;;;;;;5015630;28;20112;-70
2021/06/20 08:29:06;;;;;;;7.43;4.30;;;;;;;;;;5014083;28;20030;-70
2021/06/20 08:31:32;;;;;;;5.38;4.10;;;;;;;;;;5015651;28;20037;-70
2021/06/20 08:33:59;;;;;;;5.03;3.53;;;;;;;;;;5015555;28;20037;-70
2021/06/20 08:36:25;;;;;;;3.03;2.80;;;;;;;;;;5015558;28;20034;-69
2021/06/20 08:38:51;;;;;;;7.93;3.35;;;;;;;;;;5030189;28;20625;-70
2021/06/20 08:41:18;;;;;;;6.35;3.47;;;;;;;;;;5015406;28;20081;-68
2021/06/20 08:43:45;;;;;;;3.70;3.28;;;;;;;;;;5030242;28;20025;-69
2021/06/20 08:46:11;;;;;;;4.28;3.30;;;;;;;;;;5030532;28;20026;-70
2021/06/20 08:48:38;;;;;;;6.28;3.45;;;;;;;;;;5015266;28;20017;-71
2021/06/20 08:51:05;;;;;;;4.22;3.45;;;;;;;;;;5030439;28;20079;-69
2021/06/20 08:53:31;;;;;;;5.90;3.15;;;;;;;;;;5015157;28;20076;-69
2021/06/20 08:55:58;;;;;;;4.38;3.30;;;;;;;;;;5015180;28;20030;-70
2021/06/20 08:58:27;;;;;;;5.40;2.80;;;;;;;;;;5015063;28;20103;-71
2021/06/20 09:00:54;;;;;;;2.72;2.53;;;;;;;;;;5014971;28;20429;-70
2021/06/20 09:03:21;;;;;;;3.00;2.67;;;;;;;;;;5015271;28;20022;-69
2021/06/20 09:06:01;;;;;;;3.80;2.92;;;;;;;;;;5014609;28;20382;-69
2021/06/20 09:08:27;;;;;;;8.50;2.80;;;;;;;;;;5014942;28;20030;-71
2021/06/20 09:10:54;;;;;;;4.28;2.05;;;;;;;;;;5014868;28;20025;-71
2021/06/20 09:13:20;;;;;;;4.68;2.70;;;;;;;;;;5014842;28;20026;-71
2021/06/20 09:15:46;;;;;;;5.32;3.10;;;;;;;;;;5015017;28;20030;-70
2021/06/20 09:18:12;;;;;;;2.92;2.63;;;;;;;;;;5029962;28;20378;-70
2021/06/20 09:20:45;;;;;;;3.17;2.80;;;;;;;;;;5029779;28;20022;-70
2021/06/20 09:23:16;;;;;;;3.80;2.75;;;;;;;;;;5014594;28;20105;-70
2021/06/20 09:25:43;;;;;;;4.25;2.47;;;;;;;;;;5014502;28;20131;-69
2021/06/20 09:28:10;;;;;;;3.33;2.67;;;;;;;;;;5014552;28;20467;-68
2021/06/20 09:30:44;;;;;;;3.05;2.35;;;;;;;;;;5014541;28;20109;-71
2021/06/20 09:33:10;;;;;;;3.05;2.33;;;;;;;;;;5014494;28;20018;-69
2021/06/20 09:35:44;;;;;;;2.47;2.28;;;;;;;;;;5014356;28;20037;-71
2021/06/20 09:38:36;;;;;;;2.58;2.38;;;;;;;;;;5014195;28;20026;-71
2021/06/20 09:41:03;;;;;;;4.15;2.60;;;;;;;;;;5011945;28;20486;-71
2021/06/20 09:43:30;;;;;;;5.28;2.95;;;;;;;;;;5014137;28;20467;-69
2021/06/20 09:45:57;;;;;;;2.45;2.10;;;;;;;;;;5014017;28;20529;-69
2021/06/20 09:48:29;;;;;;;2.90;2.70;;;;;;;;;;5029387;28;20087;-71
2021/06/20 09:50:56;;;;;;;4.95;2.60;;;;;;;;;;5013996;28;20022;-72
2021/06/20 09:53:39;;;;;;;3.03;2.67;;;;;;;;;;5014013;28;20113;-70
2021/06/20 09:56:32;;;;;;;4.55;2.58;;;;;;;;;;5029202;28;20429;-68
2021/06/20 09:59:05;;;;;;;3.97;3.35;;;;;;;;;;5013895;28;20022;-68
2021/06/20 10:01:33;;;;;;;3.45;2.78;;;;;;;;;;5013516;28;20398;-72
2021/06/20 10:03:59;;;;;;;3.92;2.35;;;;;;;;;;5013769;28;20026;-68
2021/06/20 10:06:25;;;;;;;3.38;2.50;;;;;;;;;;5028971;28;20079;-66
2021/06/20 10:08:52;;;;;;;3.45;2.80;;;;;;;;;;5013834;28;20036;-71
2021/06/20 10:11:18;;;;;;;3.00;2.15;;;;;;;;;;5013732;28;20022;-69
2021/06/20 10:13:45;;;;;;;3.15;2.33;;;;;;;;;;5013786;28;20164;-68
2021/06/20 10:16:20;;;;;;;2.38;2.17;;;;;;;;;;5013661;28;20382;-69
2021/06/20 10:18:57;;;;;;;4.72;2.60;;;;;;;;;;5028736;28;20036;-68
2021/06/20 10:21:51;;;;;;;2.72;2.40;;;;;;;;;;5013655;28;20105;-68
2021/06/20 10:24:19;;;;;;;3.42;2.55;;;;;;;;;;5013652;28;20022;-70
2021/06/20 10:26:51;;;;;;;2.00;1.90;;;;;;;;;;5013464;28;20088;-68
2021/06/20 10:29:31;;;;;;;2.22;1.65;;;;;;;;;;5013406;28;20022;-68
2021/06/20 10:31:58;;;;;;;2.38;2.13;;;;;;;;;;5028594;28;20109;-67
2021/06/20 10:34:29;;;;;;;2.67;2.50;;;;;;;;;;5013465;28;20030;-70
2021/06/20 10:36:57;;;;;;;3.13;2.17;;;;;;;;;;5028636;28;20022;-70
2021/06/20 10:39:25;;;;;;;2.50;2.30;;;;;;;;;;5013410;28;20072;-71
2021/06/20 10:42:03;;;;;;;2.40;2.20;;;;;;;;;;5013615;28;20455;-71
2021/06/20 10:44:40;;;;;;;4.55;2.28;;;;;;;;;;5013304;28;20022;-66
2021/06/20 10:47:06;;;;;;;2.55;2.35;;;;;;;;;;5013015;28;20390;-70
2021/06/20 10:49:33;;;;;;;2.22;2.08;;;;;;;;;;5028425;28;20168;-70
2021/06/20 10:51:59;;;;;;;5.03;2.03;;;;;;;;;;5012576;28;20528;-70
2021/06/20 10:54:26;;;;;;;1.75;1.65;;;;;;;;;;5013222;28;20026;-70
2021/06/20 10:56:56;;;;;;;2.28;1.90;;;;;;;;;;5013283;28;20029;-71
2021/06/20 10:59:23;;;;;;;1.80;1.70;;;;;;;;;;5028416;28;20036;-70
2021/06/20 11:01:50;;;;;;;4.40;2.30;;;;;;;;;;5027852;28;20546;-70
2021/06/20 11:04:16;;;;;;;2.17;2.08;;;;;;;;;;5028284;28;20025;-70
2021/06/20 11:06:51;;;;;;;4.57;1.95;;;;;;;;;;5013078;28;20518;-70
2021/06/20 11:09:18;;;;;;;1.60;1.48;;;;;;;;;;5012890;28;20447;-67
2021/06/20 11:11:51;;;;;;;3.92;2.08;;;;;;;;;;5012780;28;20383;-69
2021/06/20 11:14:19;;;;;;;2.47;1.75;;;;;;;;;;5013051;28;20030;-68
2021/06/20 11:16:49;;;;;;;2.83;1.58;;;;;;;;;;5012960;28;20038;-69
2021/06/20 11:19:16;;;;;;;1.65;1.55;;;;;;;;;;5028210;28;20026;-70
2021/06/20 11:21:56;;;;;;;3.15;1.98;;;;;;;;;;5012934;28;20025;-70
2021/06/20 11:24:24;;;;;;;1.38;1.27;;;;;;;;;;5028151;28;20029;-71
2021/06/20 11:26:53;;;;;;;1.50;1.40;;;;;;;;;;5013039;28;20070;-71
2021/06/20 11:29:21;;;;;;;1.90;1.38;;;;;;;;;;5028075;28;20113;-71
2021/06/20 11:31:51;;;;;;;1.55;1.45;;;;;;;;;;5012916;28;20088;-70
2021/06/20 11:34:17;;;;;;;1.20;1.20;;;;;;;;;;5012910;28;20056;-71
2021/06/20 11:36:43;;;;;;;1.42;1.27;;;;;;;;;;5012852;28;20255;-70
2021/06/20 11:39:11;;;;;;;1.40;1.40;;;;;;;;;;5028310;28;20460;-69
2021/06/20 11:41:47;;;;;;;1.50;1.40;;;;;;;;;;5012797;28;20029;-69
2021/06/20 11:44:18;;;;;;;1.73;1.27;;;;;;;;;;5012852;28;20104;-69
2021/06/20 11:46:45;;;;;;;2.70;1.20;;;;;;;;;;5027938;28;20083;-67
2021/06/20 11:49:16;;;;;;;2.95;1.52;;;;;;;;;;5012823;28;20026;-69
2021/06/20 11:51:47;;;;;;;2.67;1.40;;;;;;;;;;5012800;28;20540;-69
2021/06/20 11:54:13;;;;;;;1.30;1.20;;;;;;;;;;5027931;28;20022;-67
2021/06/20 11:56:44;;;;;;;1.40;1.30;;;;;;;;;;5012700;28;20040;-69
2021/06/20 11:59:11;;;;;;;1.60;1.20;;;;;;;;;;5012778;28;20061;-68
2021/06/20 12:01:44;;;;;;;2.10;1.20;;;;;;;;;;5012440;28;20058;-68
2021/06/20 12:04:11;;;;;;;3.08;1.15;;;;;;;;;;5016126;28;20025;-69
2021/06/20 12:06:38;;;;;;;1.25;1.25;;;;;;;;;;5031196;28;20033;-69
2021/06/20 12:09:07;;;;;;;1.88;1.25;;;;;;;;;;5016088;28;20022;-71
2021/06/20 12:11:33;;;;;;;2.28;1.30;;;;;;;;;;5031160;28;20030;-68
2021/06/20 12:13:59;;;;;;;1.73;1.58;;;44.30;44.20;;;;;;5031103;28;20025;-69
2021/06/20 12:16:25;;;;;;;1.40;1.05;;;44.50;45.10;;;;;;5015671;28;20113;-70
2021/06/20 12:18:52;;;;;;;2.67;1.42;;;44.70;43.80;;;;;;5015961;28;20107;-70
2021/06/20 12:21:26;;;;;;;1.30;1.20;;;44.70;44.50;;;;;;5016179;28;20524;-68
2021/06/20 12:23:54;;;;;;;2.78;1.30;;;45.10;43.60;;;;;;5015816;28;20031;-68
2021/06/20 12:26:31;;;;;;;1.65;1.50;;;45.20;44.80;;;;;;5015675;28;20032;-68
2021/06/20 12:28:58;;;;;;;1.38;1.30;;;45.70;43.20;;;;;;5030862;28;20081;-67
2021/06/20 12:31:25;;;;;;;1.30;1.30;;;46.00;43.90;;;;;;5015627;28;20030;-68
2021/06/20 12:34:02;;;;;;;4.47;1.50;;;46.00;43.70;;;;;;5015356;28;20105;-67
2021/06/20 12:36:29;;;;;;;1.92;1.73;;;46.40;42.30;;;;;;5015809;28;20038;-69
2021/06/20 12:38:55;;;;;;;1.52;1.42;;;;;;;;;;5015575;28;20104;-67
2021/06/20 12:41:26;;;;;;;1.17;1.17;;;46.60;41.70;;;;;;5030592;28;20025;-69
2021/06/20 12:44:07;;;;;;;2.85;1.38;;;;;;;;;;5015413;28;20064;-69
2021/06/20 12:46:38;;;;;;;4.90;1.70;;;47.20;40.80;;;;;;5015029;28;20421;-68
2021/06/20 12:49:06;;;;;;;5.07;1.98;;;47.00;42.00;;;;;;5015377;28;20041;-68
2021/06/20 12:51:37;;;;;;;2.10;1.90;;;47.00;40.50;;;;;;5015276;28;20104;-70
2021/06/20 12:54:08;;;;;;;1.45;1.40;;;46.60;40.90;;;;;;5015270;28;20032;-69
2021/06/20 12:56:35;;;;;;;1.85;1.45;;;46.80;41.40;;;;;;5030413;28;20037;-70
2021/06/20 12:59:10;;;;;;;3.22;1.73;;;46.40;40.20;;;;;;5015204;28;20057;-69
2021/06/20 13:01:48;;;;;;;1.55;1.40;;;46.20;39.80;;;;;;5012690;28;20062;-69
2021/06/20 13:04:16;;;;;;;1.48;1.38;;;46.80;40.50;;;;;;5015054;28;20026;-68
2021/06/20 13:06:44;;;;;;;1.67;1.58;;;47.50;38.70;;;;;;5014926;28;20034;-69
2021/06/20 13:09:11;;;;;;;2.80;1.40;;;;;;;;;;5014937;28;20037;-69
2021/06/20 13:11:38;;;;;;;1.85;1.75;;;48.10;39.20;;;;;;5014910;28;20497;-69
2021/06/20 13:14:15;;;;;;;3.88;1.98;;;;;;;;;;5014178;28;20033;-67
2021/06/20 13:16:41;;;;;;;2.88;1.60;;;;;;;;;;5014766;28;20092;-69
2021/06/20 13:19:08;;;;;;;1.58;1.58;;;48.20;38.00;;;;;;5014788;28;20026;-68
2021/06/20 13:21:35;;;;;;;2.85;1.70;;;48.70;38.80;;;;;;5014698;28;20486;-68
2021/06/20 13:24:01;;;;;;;2.42;1.60;;;48.90;38.80;;;;;;5013331;28;20037;-69
2021/06/20 13:26:27;;;;;;;1.35;1.30;;;48.40;38.10;;;;;;5014534;28;20026;-70
2021/06/20 13:28:54;;;;;;;1.60;1.50;;;48.90;39.10;;;;;;5014558;28;20088;-70
2021/06/20 13:31:19;;;;;;;1.88;1.55;;;49.30;37.90;;;;;;5014394;28;20030;-69
2021/06/20 13:33:45;;;;;;;4.03;1.55;;;49.50;65.70;;;;;;5013069;28;20036;-68
2021/06/20 13:36:12;;;;;;;1.40;1.30;;;49.60;37.80;;;;;;5014376;28;20080;-69
2021/06/20 13:38:38;;;;;;;5.30;1.55;;;49.80;37.20;;;;;;5014409;28;20026;-68
2021/06/20 13:41:04;;;;;;;3.95;1.60;;;50.10;37.40;;;;;;5014583;28;20467;-68
2021/06/20 13:43:29;;;;;;;1.35;1.30;;;50.30;37.30;;;;;;5013972;28;20030;-65
2021/06/20 13:45:55;;;;;;;2.13;1.80;;;50.20;37.60;;;;;;5012760;28;20033;-67
2021/06/20 13:48:21;;;;;;;4.03;1.30;;;50.70;36.90;;;;;;5012847;28;20069;-67
2021/06/20 13:50:47;;;;;;;1.58;1.40;;;50.60;36.00;;;;;;5014191;28;20037;-68
2021/06/20 13:53:13;;;;;;;1.70;1.58;;;50.70;36.20;;;;;;5014410;28;20022;-67
2021/06/20 13:55:39;;;;;;;2.90;1.55;;;51.00;36.10;;;;;;5014097;28;20092;-67
2021/06/20 13:58:06;;;;;;;1.30;1.20;;;51.00;36.30;;;;;;5014325;28;20034;-68
2021/06/20 14:00:31;;;;;;;2.88;1.90;;;51.10;35.80;;;;;;5012522;28;20050;-66
2021/06/20 14:02:57;;;;;;;2.38;1.50;;;51.10;36.20;;;;;;5014009;28;20041;-66
2021/06/20 14:05:24;;;;;;;6.25;1.65;;;51.10;36.00;;;;;;5013836;28;20394;-67
2021/06/20 14:07:50;;;;;;;4.90;1.25;;;51.20;35.70;;;;;;5013859;28;20026;-66
2021/06/20 14:10:16;;;;;;;2.85;1.45;;;51.30;35.80;;;;;;5013841;28;20033;-68
2021/06/20 14:12:42;;;;;;;2.13;1.65;;;51.10;35.40;;;;;;5014073;28;20109;-66
2021/06/20 14:15:09;;;;;;;2.22;1.70;;;50.80;35.60;;;;;;5013771;28;20033;-68
2021/06/20 14:17:36;;;;;;;1.40;1.30;;;50.60;40.60;;;;;;5013798;28;20041;-66
2021/06/20 14:20:05;;;;;;;1.75;1.65;;;50.60;35.60;;;;;;5012483;28;20030;-68